UAE622 OMDB-OPLA
Flight info
| Callsign | UAE622 |
|---|---|
| Flight time | 2h 41m |
| Altitude | 37000 |
| Route | IVURO M677 LALDO B505 EGTAL R462 BIVIN G214 VEREN |
| Aircraft | B77W/H-SDE1E2E3FGHIJ2J3J4J5M1RWXY/LB1D1 |
Departure
| Time | 2026-04-25 14:12 |
|---|---|
| Airport | Dubai International Airport (OMDB) |
Arrival
| Time | 2026-04-25 16:53 |
|---|---|
| Airport | Allama Iqbal International Airport (OPLA) |
| Time | Latitude | Longitude | Altitude | Speed | Heading |
|---|---|---|---|---|---|
| 2026-04-25 13:21 | 25.24148 | 55.37324 | 31 ft | 0 kts | 31° |
| 2026-04-25 13:22 | 25.24154 | 55.37328 | 29 ft | 0 kts | 31° |
| 2026-04-25 13:59 | 25.24137 | 55.37317 | 31 ft | 4 kts | 31° |
| 2026-04-25 13:59 | 25.24114 | 55.37302 | 31 ft | 4 kts | 31° |
| 2026-04-25 14:00 | 25.24109 | 55.37298 | 31 ft | 3 kts | 31° |
| 2026-04-25 14:00 | 25.24082 | 55.37268 | 31 ft | 4 kts | 85° |
| 2026-04-25 14:00 | 25.24087 | 55.37241 | 31 ft | 4 kts | 120° |
| 2026-04-25 14:00 | 25.24100 | 55.37217 | 31 ft | 4 kts | 122° |
| 2026-04-25 14:01 | 25.24112 | 55.37196 | 31 ft | 1 kts | 122° |
| 2026-04-25 14:01 | 25.24112 | 55.37195 | 31 ft | 0 kts | 122° |
| 2026-04-25 14:04 | 25.24112 | 55.37196 | 31 ft | 1 kts | 122° |
| 2026-04-25 14:04 | 25.24096 | 55.37225 | 31 ft | 7 kts | 121° |
| 2026-04-25 14:04 | 25.24062 | 55.37286 | 31 ft | 11 kts | 121° |
| 2026-04-25 14:04 | 25.24014 | 55.37372 | 31 ft | 15 kts | 121° |
| 2026-04-25 14:05 | 25.23968 | 55.37479 | 27 ft | 16 kts | 100° |
| 2026-04-25 14:05 | 25.24001 | 55.37592 | 27 ft | 16 kts | 47° |
| 2026-04-25 14:05 | 25.24095 | 55.37661 | 29 ft | 16 kts | 32° |
| 2026-04-25 14:05 | 25.24190 | 55.37725 | 32 ft | 16 kts | 31° |
| 2026-04-25 14:06 | 25.24286 | 55.37789 | 30 ft | 16 kts | 31° |
| 2026-04-25 14:06 | 25.24343 | 55.37830 | 27 ft | 0 kts | 34° |
| 2026-04-25 14:09 | 25.24343 | 55.37831 | 27 ft | 1 kts | 34° |
| 2026-04-25 14:09 | 25.24345 | 55.37832 | 27 ft | 1 kts | 34° |
| 2026-04-25 14:10 | 25.24386 | 55.37862 | 26 ft | 10 kts | 34° |
| 2026-04-25 14:10 | 25.24460 | 55.37919 | 29 ft | 16 kts | 35° |
| 2026-04-25 14:10 | 25.24561 | 55.37997 | 28 ft | 18 kts | 35° |
| 2026-04-25 14:10 | 25.24667 | 55.38071 | 29 ft | 17 kts | 32° |
| 2026-04-25 14:11 | 25.24774 | 55.38087 | 31 ft | 11 kts | 315° |
| 2026-04-25 14:11 | 25.24793 | 55.38052 | 30 ft | 1 kts | 300° |
| 2026-04-25 14:11 | 25.24796 | 55.38046 | 30 ft | 2 kts | 300° |
| 2026-04-25 14:11 | 25.24820 | 55.38000 | 30 ft | 21 kts | 300° |
| 2026-04-25 14:12 | 25.25078 | 55.37542 | 32 ft | 121 kts | 304° |
| 2026-04-25 14:12 | 25.25679 | 55.36464 | 187 ft | 196 kts | 302° |
| 2026-04-25 14:12 | 25.26407 | 55.35119 | 1070 ft | 210 kts | 300° |
| 2026-04-25 14:12 | 25.27129 | 55.33748 | 1983 ft | 201 kts | 302° |
| 2026-04-25 14:13 | 25.27902 | 55.32379 | 2484 ft | 219 kts | 303° |
| 2026-04-25 14:13 | 25.28732 | 55.30930 | 3148 ft | 225 kts | 306° |
| 2026-04-25 14:13 | 25.29929 | 55.29812 | 3743 ft | 233 kts | 334° |
| 2026-04-25 14:13 | 25.31577 | 55.29470 | 4154 ft | 251 kts | 0° |
| 2026-04-25 14:14 | 25.33290 | 55.29965 | 4580 ft | 274 kts | 29° |
| 2026-04-25 14:14 | 25.34697 | 55.31525 | 4873 ft | 305 kts | 60° |
| 2026-04-25 14:14 | 25.35593 | 55.33748 | 5034 ft | 325 kts | 60° |
| 2026-04-25 14:14 | 25.37050 | 55.35740 | 5192 ft | 342 kts | 45° |
| 2026-04-25 14:15 | 25.38443 | 55.37938 | 5440 ft | 361 kts | 68° |
| 2026-04-25 14:15 | 25.38820 | 55.39742 | 5891 ft | 368 kts | 86° |
| 2026-04-25 14:15 | 25.38237 | 55.43465 | 6898 ft | 373 kts | 108° |
| 2026-04-25 14:15 | 25.37424 | 55.46150 | 7690 ft | 376 kts | 108° |
| 2026-04-25 14:16 | 25.36684 | 55.49007 | 8571 ft | 379 kts | 104° |
| 2026-04-25 14:16 | 25.36151 | 55.51873 | 9415 ft | 383 kts | 100° |
| 2026-04-25 14:16 | 25.35782 | 55.54787 | 10147 ft | 389 kts | 97° |
| 2026-04-25 14:16 | 25.35524 | 55.57784 | 10903 ft | 394 kts | 95° |
| 2026-04-25 14:17 | 25.35336 | 55.60817 | 11803 ft | 397 kts | 94° |
| 2026-04-25 14:17 | 25.35183 | 55.63883 | 12791 ft | 401 kts | 94° |
| 2026-04-25 14:17 | 25.35045 | 55.66981 | 13754 ft | 405 kts | 94° |
| 2026-04-25 14:17 | 25.34909 | 55.70112 | 14553 ft | 411 kts | 94° |
| 2026-04-25 14:18 | 25.34770 | 55.73296 | 15334 ft | 418 kts | 94° |
| 2026-04-25 14:18 | 25.34626 | 55.76529 | 16089 ft | 424 kts | 94° |
| 2026-04-25 14:18 | 25.34479 | 55.79792 | 16850 ft | 431 kts | 94° |
| 2026-04-25 14:18 | 25.34326 | 55.83118 | 17605 ft | 437 kts | 94° |
| 2026-04-25 14:19 | 25.34170 | 55.86497 | 18343 ft | 443 kts | 94° |
| 2026-04-25 14:19 | 25.34012 | 55.89884 | 18992 ft | 448 kts | 94° |
| 2026-04-25 14:19 | 25.33850 | 55.93337 | 19703 ft | 452 kts | 94° |
| 2026-04-25 14:19 | 25.33687 | 55.96821 | 20387 ft | 456 kts | 94° |
| 2026-04-25 14:20 | 25.33520 | 56.00346 | 21042 ft | 462 kts | 94° |
| 2026-04-25 14:20 | 25.33406 | 56.02752 | 21484 ft | 465 kts | 94° |
| 2026-04-25 14:20 | 25.33178 | 56.07518 | 22350 ft | 472 kts | 94° |
| 2026-04-25 14:20 | 25.33004 | 56.11155 | 22966 ft | 477 kts | 95° |
| 2026-04-25 14:21 | 25.32826 | 56.14843 | 23548 ft | 482 kts | 95° |
| 2026-04-25 14:21 | 25.32606 | 56.18550 | 24076 ft | 485 kts | 96° |
| 2026-04-25 14:21 | 25.32294 | 56.22285 | 24589 ft | 489 kts | 97° |
| 2026-04-25 14:21 | 25.31950 | 56.26041 | 25085 ft | 493 kts | 97° |
| 2026-04-25 14:22 | 25.31609 | 56.29796 | 25561 ft | 498 kts | 97° |
| 2026-04-25 14:22 | 25.31279 | 56.33616 | 26075 ft | 501 kts | 97° |
| 2026-04-25 14:22 | 25.30956 | 56.37478 | 26578 ft | 505 kts | 97° |
| 2026-04-25 14:22 | 25.30698 | 56.41372 | 27050 ft | 510 kts | 94° |
| 2026-04-25 14:23 | 25.30585 | 56.45304 | 27506 ft | 514 kts | 92° |
| 2026-04-25 14:23 | 25.30503 | 56.49275 | 27950 ft | 518 kts | 92° |
| 2026-04-25 14:23 | 25.30401 | 56.53275 | 28379 ft | 521 kts | 94° |
| 2026-04-25 14:23 | 25.30065 | 56.57278 | 28759 ft | 524 kts | 100° |
| 2026-04-25 14:24 | 25.29344 | 56.61236 | 29139 ft | 527 kts | 105° |
| 2026-04-25 14:24 | 25.28323 | 56.65133 | 29501 ft | 529 kts | 111° |
| 2026-04-25 14:24 | 25.26984 | 56.68871 | 29866 ft | 531 kts | 115° |
| 2026-04-25 14:24 | 25.25533 | 56.72628 | 30261 ft | 531 kts | 115° |
| 2026-04-25 14:25 | 25.24069 | 56.76370 | 30719 ft | 530 kts | 115° |
| 2026-04-25 14:25 | 25.22608 | 56.80113 | 31184 ft | 530 kts | 115° |
| 2026-04-25 14:25 | 25.21162 | 56.83854 | 31625 ft | 529 kts | 115° |
| 2026-04-25 14:25 | 25.20209 | 56.86334 | 31968 ft | 528 kts | 115° |
| 2026-04-25 14:26 | 25.18309 | 56.91317 | 32657 ft | 526 kts | 114° |
| 2026-04-25 14:26 | 25.16894 | 56.95038 | 33083 ft | 526 kts | 114° |
| 2026-04-25 14:26 | 25.15477 | 56.98766 | 33474 ft | 526 kts | 114° |
| 2026-04-25 14:26 | 25.14093 | 57.02404 | 33718 ft | 530 kts | 115° |
| 2026-04-25 14:27 | 25.12652 | 57.06184 | 33984 ft | 532 kts | 114° |
| 2026-04-25 14:27 | 25.11215 | 57.09950 | 34343 ft | 532 kts | 114° |
| 2026-04-25 14:27 | 25.09779 | 57.13709 | 34790 ft | 529 kts | 114° |
| 2026-04-25 14:27 | 25.08354 | 57.17435 | 35205 ft | 528 kts | 114° |
| 2026-04-25 14:28 | 25.06922 | 57.21174 | 35477 ft | 529 kts | 114° |
| 2026-04-25 14:28 | 25.05505 | 57.24872 | 35735 ft | 531 kts | 114° |
| 2026-04-25 14:28 | 25.04062 | 57.28631 | 36042 ft | 531 kts | 113° |
| 2026-04-25 14:28 | 25.02622 | 57.32381 | 36360 ft | 531 kts | 113° |
| 2026-04-25 14:29 | 25.01179 | 57.36136 | 36670 ft | 531 kts | 113° |
| 2026-04-25 14:29 | 24.99731 | 57.39902 | 36813 ft | 535 kts | 113° |
| 2026-04-25 14:29 | 24.98274 | 57.43687 | 36838 ft | 536 kts | 113° |
| 2026-04-25 14:30 | 24.95368 | 57.51227 | 36843 ft | 531 kts | 113° |
| 2026-04-25 14:30 | 24.91046 | 57.62416 | 36859 ft | 528 kts | 113° |
| 2026-04-25 14:31 | 24.88189 | 57.69805 | 36866 ft | 528 kts | 113° |
| 2026-04-25 14:31 | 24.85316 | 57.77247 | 36857 ft | 527 kts | 111° |
| 2026-04-25 14:32 | 24.83247 | 57.84974 | 36853 ft | 526 kts | 100° |
| 2026-04-25 14:32 | 24.82329 | 57.92940 | 36865 ft | 524 kts | 93° |
| 2026-04-25 14:33 | 24.81760 | 58.00834 | 36859 ft | 524 kts | 92° |
| 2026-04-25 14:33 | 24.81163 | 58.08809 | 36851 ft | 524 kts | 93° |
| 2026-04-25 14:34 | 24.80518 | 58.16805 | 36855 ft | 524 kts | 93° |
| 2026-04-25 14:34 | 24.79860 | 58.24730 | 36861 ft | 523 kts | 94° |
| 2026-04-25 14:35 | 24.79195 | 58.32687 | 36849 ft | 522 kts | 94° |
| 2026-04-25 14:35 | 24.78530 | 58.40636 | 36850 ft | 521 kts | 94° |
| 2026-04-25 14:36 | 24.77863 | 58.48571 | 36854 ft | 520 kts | 94° |
| 2026-04-25 14:36 | 24.77193 | 58.56489 | 36854 ft | 518 kts | 94° |
| 2026-04-25 14:37 | 24.76524 | 58.64343 | 36848 ft | 517 kts | 94° |
| 2026-04-25 14:37 | 24.75849 | 58.72223 | 36851 ft | 516 kts | 94° |
| 2026-04-25 14:38 | 24.75171 | 58.80083 | 36851 ft | 516 kts | 94° |
| 2026-04-25 14:38 | 24.74489 | 58.87940 | 36852 ft | 516 kts | 94° |
| 2026-04-25 14:39 | 24.73807 | 58.95754 | 36853 ft | 516 kts | 94° |
| 2026-04-25 14:39 | 24.73124 | 59.03520 | 36858 ft | 516 kts | 94° |
| 2026-04-25 14:40 | 24.72430 | 59.11388 | 36853 ft | 516 kts | 94° |
| 2026-04-25 14:40 | 24.71733 | 59.19241 | 36850 ft | 516 kts | 94° |
| 2026-04-25 14:41 | 24.71033 | 59.27092 | 36852 ft | 515 kts | 94° |
| 2026-04-25 14:41 | 24.70329 | 59.34932 | 36856 ft | 515 kts | 94° |
| 2026-04-25 14:42 | 24.69856 | 59.40174 | 36849 ft | 514 kts | 94° |
| 2026-04-25 14:42 | 24.68909 | 59.50598 | 36847 ft | 513 kts | 94° |
| 2026-04-25 14:43 | 24.68199 | 59.58357 | 36850 ft | 512 kts | 94° |
| 2026-04-25 14:43 | 24.67483 | 59.66147 | 36854 ft | 511 kts | 94° |
| 2026-04-25 14:44 | 24.66764 | 59.73913 | 36847 ft | 510 kts | 94° |
| 2026-04-25 14:44 | 24.66047 | 59.81624 | 36848 ft | 509 kts | 94° |
| 2026-04-25 14:45 | 24.65324 | 59.89358 | 36854 ft | 508 kts | 94° |
| 2026-04-25 14:45 | 24.64596 | 59.97096 | 36849 ft | 508 kts | 94° |
| 2026-04-25 14:46 | 24.63874 | 60.04734 | 36852 ft | 508 kts | 94° |
| 2026-04-25 14:46 | 24.63143 | 60.12415 | 36851 ft | 508 kts | 94° |
| 2026-04-25 14:47 | 24.62650 | 60.17579 | 36853 ft | 508 kts | 95° |
| 2026-04-25 14:47 | 24.61662 | 60.27861 | 36855 ft | 508 kts | 95° |
| 2026-04-25 14:48 | 24.60915 | 60.35587 | 36852 ft | 508 kts | 95° |
| 2026-04-25 14:48 | 24.60169 | 60.43261 | 36846 ft | 508 kts | 95° |
| 2026-04-25 14:49 | 24.59414 | 60.50984 | 36853 ft | 508 kts | 95° |
| 2026-04-25 14:49 | 24.58840 | 60.58733 | 36848 ft | 507 kts | 86° |
| 2026-04-25 14:50 | 24.60048 | 60.66308 | 36862 ft | 502 kts | 70° |
| 2026-04-25 14:50 | 24.62882 | 60.73277 | 36857 ft | 499 kts | 61° |
| 2026-04-25 14:51 | 24.65963 | 60.80139 | 36847 ft | 501 kts | 62° |
| 2026-04-25 14:51 | 24.68944 | 60.87044 | 36851 ft | 502 kts | 63° |
| 2026-04-25 14:52 | 24.71903 | 60.94018 | 36851 ft | 503 kts | 63° |
| 2026-04-25 14:52 | 24.73816 | 60.98725 | 36852 ft | 504 kts | 64° |
| 2026-04-25 14:53 | 24.76541 | 61.05544 | 36855 ft | 504 kts | 64° |
| 2026-04-25 14:53 | 24.79371 | 61.12609 | 36847 ft | 504 kts | 64° |
| 2026-04-25 14:54 | 24.82196 | 61.19635 | 36845 ft | 504 kts | 64° |
| 2026-04-25 14:54 | 24.85029 | 61.26683 | 36843 ft | 503 kts | 64° |
| 2026-04-25 14:55 | 24.87858 | 61.33737 | 36843 ft | 503 kts | 64° |
| 2026-04-25 14:55 | 24.90676 | 61.40780 | 36843 ft | 502 kts | 64° |
| 2026-04-25 14:56 | 24.93471 | 61.47769 | 36841 ft | 501 kts | 64° |
| 2026-04-25 14:56 | 24.96316 | 61.54769 | 36840 ft | 500 kts | 64° |
| 2026-04-25 14:57 | 24.99170 | 61.61760 | 36841 ft | 500 kts | 64° |
| 2026-04-25 14:57 | 25.02011 | 61.68757 | 36841 ft | 500 kts | 64° |
| 2026-04-25 14:58 | 25.04885 | 61.75741 | 36842 ft | 499 kts | 60° |
| 2026-04-25 14:58 | 25.07892 | 61.81155 | 36845 ft | 496 kts | 52° |
| 2026-04-25 14:59 | 25.12333 | 61.86971 | 36841 ft | 494 kts | 45° |
| 2026-04-25 14:59 | 25.16980 | 61.92504 | 36839 ft | 495 kts | 45° |
| 2026-04-25 15:00 | 25.21644 | 61.98086 | 36844 ft | 494 kts | 45° |
| 2026-04-25 15:00 | 25.26248 | 62.03662 | 36837 ft | 495 kts | 45° |
| 2026-04-25 15:01 | 25.30878 | 62.09302 | 36839 ft | 495 kts | 45° |
| 2026-04-25 15:01 | 25.35506 | 62.14947 | 36841 ft | 495 kts | 45° |
| 2026-04-25 15:02 | 25.40108 | 62.20564 | 36841 ft | 495 kts | 45° |
| 2026-04-25 15:02 | 25.44730 | 62.26212 | 36836 ft | 496 kts | 45° |
| 2026-04-25 15:03 | 25.49362 | 62.31877 | 36845 ft | 496 kts | 45° |
| 2026-04-25 15:03 | 25.53995 | 62.37551 | 36837 ft | 497 kts | 45° |
| 2026-04-25 15:04 | 25.58636 | 62.43243 | 36828 ft | 497 kts | 45° |
| 2026-04-25 15:04 | 25.63271 | 62.48933 | 36842 ft | 498 kts | 45° |
| 2026-04-25 15:05 | 25.67912 | 62.54639 | 36827 ft | 498 kts | 45° |
| 2026-04-25 15:06 | 25.74881 | 62.63221 | 36829 ft | 499 kts | 45° |
| 2026-04-25 15:06 | 25.79522 | 62.68945 | 36831 ft | 499 kts | 45° |
| 2026-04-25 15:07 | 25.84134 | 62.74642 | 36828 ft | 499 kts | 45° |
| 2026-04-25 15:07 | 25.88774 | 62.80379 | 36830 ft | 498 kts | 45° |
| 2026-04-25 15:08 | 25.93407 | 62.86117 | 36835 ft | 498 kts | 46° |
| 2026-04-25 15:08 | 25.98000 | 62.91813 | 36838 ft | 497 kts | 45° |
| 2026-04-25 15:09 | 26.02600 | 62.97513 | 36841 ft | 496 kts | 45° |
| 2026-04-25 15:09 | 26.09483 | 63.06025 | 36855 ft | 496 kts | 45° |
| 2026-04-25 15:10 | 26.14092 | 63.11737 | 36851 ft | 495 kts | 45° |
| 2026-04-25 15:11 | 26.20982 | 63.20295 | 36858 ft | 496 kts | 45° |
| 2026-04-25 15:11 | 26.25590 | 63.26030 | 36868 ft | 497 kts | 45° |
| 2026-04-25 15:12 | 26.32515 | 63.34661 | 36875 ft | 498 kts | 45° |
| 2026-04-25 15:12 | 26.36359 | 63.39457 | 36876 ft | 498 kts | 45° |
| 2026-04-25 15:13 | 26.44029 | 63.49047 | 36881 ft | 499 kts | 45° |
| 2026-04-25 15:14 | 26.48648 | 63.54832 | 36877 ft | 499 kts | 45° |
| 2026-04-25 15:14 | 26.53279 | 63.60639 | 36880 ft | 499 kts | 45° |
| 2026-04-25 15:15 | 26.57867 | 63.66400 | 36869 ft | 499 kts | 45° |
| 2026-04-25 15:15 | 26.62484 | 63.72205 | 36877 ft | 499 kts | 45° |
| 2026-04-25 15:16 | 26.67097 | 63.78012 | 36876 ft | 499 kts | 46° |
| 2026-04-25 15:16 | 26.74031 | 63.86757 | 36894 ft | 501 kts | 45° |
| 2026-04-25 15:17 | 26.80960 | 63.95514 | 36892 ft | 503 kts | 45° |
| 2026-04-25 15:18 | 26.85561 | 64.01341 | 36896 ft | 504 kts | 45° |
| 2026-04-25 15:18 | 26.92481 | 64.10248 | 36888 ft | 506 kts | 51° |
| 2026-04-25 15:19 | 26.95350 | 64.15988 | 36906 ft | 511 kts | 66° |
| 2026-04-25 15:19 | 26.96774 | 64.21080 | 36893 ft | 514 kts | 77° |
| 2026-04-25 15:19 | 26.97457 | 64.24969 | 36907 ft | 514 kts | 78° |
| 2026-04-25 15:20 | 26.98726 | 64.32868 | 36901 ft | 515 kts | 78° |
| 2026-04-25 15:20 | 27.00020 | 64.40770 | 36910 ft | 514 kts | 78° |
| 2026-04-25 15:21 | 27.01365 | 64.48649 | 36900 ft | 514 kts | 78° |
| 2026-04-25 15:21 | 27.02724 | 64.56510 | 36902 ft | 513 kts | 78° |
| 2026-04-25 15:22 | 27.04078 | 64.64369 | 36903 ft | 512 kts | 78° |
| 2026-04-25 15:22 | 27.05413 | 64.72168 | 36904 ft | 512 kts | 78° |
| 2026-04-25 15:23 | 27.06753 | 64.80034 | 36907 ft | 512 kts | 78° |
| 2026-04-25 15:23 | 27.08085 | 64.87882 | 36897 ft | 512 kts | 78° |
| 2026-04-25 15:24 | 27.09413 | 64.95725 | 36900 ft | 511 kts | 78° |
| 2026-04-25 15:24 | 27.10498 | 65.02158 | 36913 ft | 511 kts | 78° |
| 2026-04-25 15:25 | 27.12028 | 65.11265 | 36907 ft | 511 kts | 78° |
| 2026-04-25 15:25 | 27.13342 | 65.19113 | 36905 ft | 511 kts | 78° |
| 2026-04-25 15:26 | 27.14652 | 65.26963 | 36906 ft | 511 kts | 78° |
| 2026-04-25 15:26 | 27.15957 | 65.34811 | 36912 ft | 511 kts | 78° |
| 2026-04-25 15:27 | 27.17257 | 65.42663 | 36907 ft | 511 kts | 78° |
| 2026-04-25 15:28 | 27.19191 | 65.54392 | 36905 ft | 511 kts | 78° |
| 2026-04-25 15:28 | 27.20481 | 65.62249 | 36929 ft | 510 kts | 79° |
| 2026-04-25 15:29 | 27.21764 | 65.70094 | 36921 ft | 510 kts | 79° |
| 2026-04-25 15:29 | 27.23038 | 65.77909 | 36914 ft | 510 kts | 79° |
| 2026-04-25 15:30 | 27.24311 | 65.85755 | 36914 ft | 510 kts | 79° |
| 2026-04-25 15:30 | 27.25579 | 65.93598 | 36918 ft | 510 kts | 79° |
| 2026-04-25 15:31 | 27.26829 | 66.01357 | 36908 ft | 509 kts | 79° |
| 2026-04-25 15:31 | 27.28089 | 66.09191 | 36910 ft | 509 kts | 79° |
| 2026-04-25 15:32 | 27.29345 | 66.17027 | 36913 ft | 508 kts | 79° |
| 2026-04-25 15:32 | 27.30585 | 66.24801 | 36917 ft | 508 kts | 79° |
| 2026-04-25 15:33 | 27.32448 | 66.36536 | 36901 ft | 507 kts | 79° |
| 2026-04-25 15:33 | 27.33681 | 66.44341 | 36915 ft | 506 kts | 79° |
| 2026-04-25 15:34 | 27.34906 | 66.52124 | 36911 ft | 505 kts | 79° |
| 2026-04-25 15:34 | 27.35715 | 66.57281 | 36920 ft | 505 kts | 79° |
| 2026-04-25 15:35 | 27.37937 | 66.71509 | 36910 ft | 504 kts | 79° |
| 2026-04-25 15:36 | 27.39746 | 66.83166 | 36901 ft | 504 kts | 79° |
| 2026-04-25 15:36 | 27.40949 | 66.90957 | 36893 ft | 504 kts | 79° |
| 2026-04-25 15:37 | 27.42147 | 66.98751 | 36891 ft | 505 kts | 79° |
| 2026-04-25 15:37 | 27.43332 | 67.06471 | 36866 ft | 507 kts | 79° |
| 2026-04-25 15:38 | 27.44524 | 67.14293 | 36871 ft | 507 kts | 79° |
| 2026-04-25 15:38 | 27.45709 | 67.22083 | 36826 ft | 507 kts | 79° |
| 2026-04-25 15:39 | 27.46990 | 67.29863 | 36791 ft | 504 kts | 77° |
| 2026-04-25 15:39 | 27.48363 | 67.37593 | 36804 ft | 503 kts | 77° |
| 2026-04-25 15:40 | 27.49278 | 67.42762 | 36780 ft | 502 kts | 77° |
| 2026-04-25 15:40 | 27.51063 | 67.53042 | 36774 ft | 502 kts | 78° |
| 2026-04-25 15:41 | 27.52380 | 67.60721 | 36755 ft | 501 kts | 77° |
| 2026-04-25 15:41 | 27.53696 | 67.68425 | 36752 ft | 500 kts | 77° |
| 2026-04-25 15:42 | 27.55009 | 67.76132 | 36748 ft | 500 kts | 78° |
| 2026-04-25 15:42 | 27.56318 | 67.83837 | 36749 ft | 500 kts | 78° |
| 2026-04-25 15:43 | 27.57615 | 67.91499 | 36746 ft | 500 kts | 78° |
| 2026-04-25 15:43 | 27.58915 | 67.99201 | 36753 ft | 500 kts | 78° |
| 2026-04-25 15:44 | 27.60194 | 68.06814 | 36752 ft | 500 kts | 78° |
| 2026-04-25 15:44 | 27.61486 | 68.14527 | 36754 ft | 501 kts | 78° |
| 2026-04-25 15:45 | 27.62776 | 68.22251 | 36763 ft | 501 kts | 78° |
| 2026-04-25 15:45 | 27.63636 | 68.27422 | 36757 ft | 502 kts | 78° |
| 2026-04-25 15:46 | 27.65131 | 68.36432 | 36760 ft | 503 kts | 78° |
| 2026-04-25 15:46 | 27.66413 | 68.44194 | 36761 ft | 503 kts | 78° |
| 2026-04-25 15:47 | 27.67692 | 68.51963 | 36765 ft | 504 kts | 78° |
| 2026-04-25 15:47 | 27.68969 | 68.59753 | 36771 ft | 505 kts | 77° |
| 2026-04-25 15:48 | 27.71145 | 68.67227 | 36768 ft | 501 kts | 62° |
| 2026-04-25 15:48 | 27.74772 | 68.73829 | 36773 ft | 497 kts | 51° |
| 2026-04-25 15:49 | 27.78898 | 68.80118 | 36770 ft | 498 kts | 51° |
| 2026-04-25 15:49 | 27.83024 | 68.86416 | 36782 ft | 499 kts | 51° |
| 2026-04-25 15:50 | 27.87116 | 68.92753 | 36780 ft | 498 kts | 52° |
| 2026-04-25 15:50 | 27.91182 | 68.99103 | 36768 ft | 498 kts | 52° |
| 2026-04-25 15:51 | 27.94516 | 69.04323 | 36778 ft | 498 kts | 52° |
| 2026-04-25 15:51 | 27.99252 | 69.11744 | 36777 ft | 498 kts | 52° |
| 2026-04-25 15:52 | 28.03301 | 69.18094 | 36781 ft | 497 kts | 52° |
| 2026-04-25 15:52 | 28.07331 | 69.24424 | 36769 ft | 498 kts | 52° |
| 2026-04-25 15:53 | 28.11378 | 69.30788 | 36776 ft | 498 kts | 52° |
| 2026-04-25 15:53 | 28.15421 | 69.37158 | 36790 ft | 498 kts | 52° |
| 2026-04-25 15:54 | 28.19464 | 69.43535 | 36794 ft | 498 kts | 52° |
| 2026-04-25 15:54 | 28.23504 | 69.49918 | 36790 ft | 498 kts | 52° |
| 2026-04-25 15:55 | 28.27512 | 69.56261 | 36793 ft | 499 kts | 51° |
| 2026-04-25 15:55 | 28.31553 | 69.62665 | 36794 ft | 499 kts | 51° |
| 2026-04-25 15:56 | 28.35592 | 69.69074 | 36794 ft | 498 kts | 51° |
| 2026-04-25 15:56 | 28.39624 | 69.75483 | 36794 ft | 498 kts | 51° |
| 2026-04-25 15:57 | 28.43652 | 69.81895 | 36792 ft | 498 kts | 51° |
| 2026-04-25 15:57 | 28.47656 | 69.88278 | 36796 ft | 498 kts | 52° |
| 2026-04-25 15:58 | 28.51677 | 69.94698 | 36794 ft | 498 kts | 52° |
| 2026-04-25 15:58 | 28.55645 | 70.01044 | 36793 ft | 499 kts | 52° |
| 2026-04-25 15:59 | 28.59666 | 70.07483 | 36792 ft | 499 kts | 52° |
| 2026-04-25 15:59 | 28.63691 | 70.13937 | 36804 ft | 499 kts | 51° |
| 2026-04-25 16:00 | 28.66352 | 70.18210 | 36801 ft | 500 kts | 51° |
| 2026-04-25 16:00 | 28.71733 | 70.26865 | 36794 ft | 500 kts | 52° |
| 2026-04-25 16:01 | 28.75726 | 70.33300 | 36796 ft | 500 kts | 52° |
| 2026-04-25 16:01 | 28.79742 | 70.39782 | 36798 ft | 501 kts | 52° |
| 2026-04-25 16:02 | 28.83756 | 70.46268 | 36794 ft | 501 kts | 52° |
| 2026-04-25 16:02 | 28.87781 | 70.52784 | 36795 ft | 501 kts | 52° |
| 2026-04-25 16:03 | 28.91775 | 70.59259 | 36795 ft | 501 kts | 52° |
| 2026-04-25 16:03 | 28.95784 | 70.65769 | 36795 ft | 501 kts | 52° |
| 2026-04-25 16:04 | 28.99792 | 70.72287 | 36801 ft | 501 kts | 52° |
| 2026-04-25 16:04 | 29.03793 | 70.78803 | 36792 ft | 501 kts | 52° |
| 2026-04-25 16:05 | 29.07787 | 70.85320 | 36793 ft | 500 kts | 52° |
| 2026-04-25 16:06 | 29.13768 | 70.95096 | 36794 ft | 500 kts | 52° |
| 2026-04-25 16:06 | 29.17692 | 71.01523 | 36794 ft | 500 kts | 52° |
| 2026-04-25 16:07 | 29.21677 | 71.08059 | 36800 ft | 501 kts | 52° |
| 2026-04-25 16:07 | 29.25664 | 71.14610 | 36805 ft | 501 kts | 52° |
| 2026-04-25 16:08 | 29.29644 | 71.21159 | 36799 ft | 501 kts | 52° |
| 2026-04-25 16:08 | 29.33627 | 71.27722 | 36816 ft | 501 kts | 52° |
| 2026-04-25 16:09 | 29.37602 | 71.34285 | 36810 ft | 501 kts | 52° |
| 2026-04-25 16:09 | 29.41571 | 71.40847 | 36799 ft | 500 kts | 52° |
| 2026-04-25 16:10 | 29.45507 | 71.47366 | 36791 ft | 500 kts | 52° |
| 2026-04-25 16:10 | 29.49467 | 71.53934 | 36795 ft | 499 kts | 52° |
| 2026-04-25 16:11 | 29.53416 | 71.60494 | 36807 ft | 500 kts | 51° |
| 2026-04-25 16:11 | 29.57371 | 71.67074 | 36787 ft | 501 kts | 52° |
| 2026-04-25 16:12 | 29.61302 | 71.73626 | 36806 ft | 502 kts | 52° |
| 2026-04-25 16:12 | 29.65263 | 71.80238 | 36802 ft | 502 kts | 52° |
| 2026-04-25 16:13 | 29.69225 | 71.86864 | 36803 ft | 503 kts | 52° |
| 2026-04-25 16:13 | 29.73188 | 71.93503 | 36788 ft | 503 kts | 52° |
| 2026-04-25 16:14 | 29.77129 | 72.00116 | 36794 ft | 503 kts | 52° |
| 2026-04-25 16:14 | 29.81042 | 72.06692 | 36794 ft | 502 kts | 52° |
| 2026-04-25 16:15 | 29.84985 | 72.13330 | 36798 ft | 502 kts | 52° |
| 2026-04-25 16:15 | 29.89149 | 72.19751 | 36798 ft | 497 kts | 45° |
| 2026-04-25 16:16 | 29.93736 | 72.25724 | 36802 ft | 497 kts | 44° |
| 2026-04-25 16:16 | 29.98338 | 72.31674 | 36800 ft | 497 kts | 45° |
| 2026-04-25 16:17 | 30.02908 | 72.37670 | 36801 ft | 498 kts | 45° |
| 2026-04-25 16:17 | 30.07464 | 72.43691 | 36803 ft | 498 kts | 45° |
| 2026-04-25 16:18 | 30.11990 | 72.49681 | 36803 ft | 498 kts | 45° |
| 2026-04-25 16:18 | 30.16542 | 72.55709 | 36667 ft | 501 kts | 45° |
| 2026-04-25 16:19 | 30.21083 | 72.61739 | 36660 ft | 486 kts | 45° |
| 2026-04-25 16:19 | 30.25516 | 72.67706 | 36686 ft | 495 kts | 46° |
| 2026-04-25 16:20 | 30.30057 | 72.73845 | 36079 ft | 510 kts | 45° |
| 2026-04-25 16:20 | 30.32352 | 72.76956 | 35373 ft | 506 kts | 45° |
| 2026-04-25 16:20 | 30.36900 | 72.83130 | 33948 ft | 501 kts | 44° |
| 2026-04-25 16:21 | 30.39160 | 72.86201 | 33145 ft | 498 kts | 44° |
| 2026-04-25 16:21 | 30.41406 | 72.89247 | 32194 ft | 498 kts | 44° |
| 2026-04-25 16:21 | 30.43663 | 72.92307 | 31089 ft | 502 kts | 45° |
| 2026-04-25 16:21 | 30.45950 | 72.95408 | 29927 ft | 509 kts | 45° |
| 2026-04-25 16:22 | 30.48252 | 72.98537 | 28924 ft | 508 kts | 45° |
| 2026-04-25 16:22 | 30.50458 | 73.01546 | 28236 ft | 502 kts | 46° |
| 2026-04-25 16:22 | 30.52705 | 73.04615 | 27548 ft | 496 kts | 46° |
| 2026-04-25 16:22 | 30.54922 | 73.07642 | 26879 ft | 490 kts | 45° |
| 2026-04-25 16:23 | 30.57121 | 73.10645 | 26243 ft | 485 kts | 45° |
| 2026-04-25 16:23 | 30.59293 | 73.13610 | 25611 ft | 480 kts | 45° |
| 2026-04-25 16:23 | 30.61449 | 73.16555 | 24975 ft | 476 kts | 45° |
| 2026-04-25 16:23 | 30.63588 | 73.19482 | 24339 ft | 473 kts | 45° |
| 2026-04-25 16:24 | 30.65712 | 73.22388 | 23704 ft | 470 kts | 45° |
| 2026-04-25 16:24 | 30.67823 | 73.25277 | 23013 ft | 468 kts | 45° |
| 2026-04-25 16:24 | 30.69927 | 73.28144 | 22332 ft | 464 kts | 45° |
| 2026-04-25 16:24 | 30.72026 | 73.30974 | 21718 ft | 460 kts | 45° |
| 2026-04-25 16:25 | 30.74108 | 73.33768 | 21097 ft | 455 kts | 45° |
| 2026-04-25 16:25 | 30.74809 | 73.34708 | 20891 ft | 454 kts | 45° |
| 2026-04-25 16:25 | 30.78218 | 73.39288 | 19894 ft | 447 kts | 45° |
| 2026-04-25 16:25 | 30.80245 | 73.42016 | 19304 ft | 444 kts | 45° |
| 2026-04-25 16:26 | 30.82262 | 73.44736 | 18706 ft | 441 kts | 45° |
| 2026-04-25 16:26 | 30.84260 | 73.47433 | 18095 ft | 439 kts | 45° |
| 2026-04-25 16:26 | 30.86248 | 73.50120 | 17428 ft | 436 kts | 45° |
| 2026-04-25 16:26 | 30.88192 | 73.52751 | 16813 ft | 432 kts | 45° |
| 2026-04-25 16:27 | 30.90146 | 73.55397 | 16213 ft | 428 kts | 45° |
| 2026-04-25 16:27 | 30.92077 | 73.58014 | 15632 ft | 424 kts | 45° |
| 2026-04-25 16:27 | 30.93992 | 73.60610 | 15049 ft | 420 kts | 45° |
| 2026-04-25 16:27 | 30.95887 | 73.63181 | 14471 ft | 417 kts | 45° |
| 2026-04-25 16:28 | 30.97763 | 73.65728 | 13880 ft | 407 kts | 45° |
| 2026-04-25 16:28 | 30.99553 | 73.68167 | 13286 ft | 391 kts | 45° |
| 2026-04-25 16:28 | 31.01343 | 73.70596 | 12719 ft | 398 kts | 45° |
| 2026-04-25 16:28 | 31.03155 | 73.73054 | 12146 ft | 401 kts | 46° |
| 2026-04-25 16:29 | 31.04969 | 73.75519 | 11593 ft | 399 kts | 46° |
| 2026-04-25 16:29 | 31.06760 | 73.77959 | 10998 ft | 387 kts | 46° |
| 2026-04-25 16:29 | 31.08446 | 73.80266 | 10743 ft | 358 kts | 46° |
| 2026-04-25 16:29 | 31.09968 | 73.82352 | 10558 ft | 326 kts | 46° |
| 2026-04-25 16:30 | 31.11402 | 73.84312 | 10438 ft | 312 kts | 45° |
| 2026-04-25 16:30 | 31.12798 | 73.86213 | 10307 ft | 303 kts | 45° |
| 2026-04-25 16:30 | 31.14151 | 73.88056 | 10180 ft | 297 kts | 45° |
| 2026-04-25 16:30 | 31.15497 | 73.89890 | 10070 ft | 298 kts | 45° |
| 2026-04-25 16:31 | 31.16847 | 73.91732 | 9960 ft | 298 kts | 46° |
| 2026-04-25 16:31 | 31.18192 | 73.93569 | 9798 ft | 299 kts | 46° |
| 2026-04-25 16:31 | 31.19558 | 73.95437 | 9452 ft | 303 kts | 46° |
| 2026-04-25 16:31 | 31.20923 | 73.97306 | 9112 ft | 302 kts | 46° |
| 2026-04-25 16:32 | 31.22282 | 73.99166 | 8774 ft | 300 kts | 46° |
| 2026-04-25 16:32 | 31.23609 | 74.00984 | 8465 ft | 299 kts | 47° |
| 2026-04-25 16:32 | 31.24905 | 74.02858 | 8096 ft | 290 kts | 56° |
| 2026-04-25 16:32 | 31.25663 | 74.04989 | 7825 ft | 287 kts | 71° |
| 2026-04-25 16:33 | 31.26236 | 74.07220 | 7520 ft | 286 kts | 72° |
| 2026-04-25 16:33 | 31.26805 | 74.09448 | 7211 ft | 286 kts | 72° |
| 2026-04-25 16:33 | 31.27378 | 74.11669 | 6905 ft | 285 kts | 71° |
| 2026-04-25 16:33 | 31.27927 | 74.13778 | 6610 ft | 285 kts | 71° |
| 2026-04-25 16:34 | 31.28509 | 74.15999 | 6292 ft | 285 kts | 72° |
| 2026-04-25 16:34 | 31.29091 | 74.18210 | 5966 ft | 284 kts | 71° |
| 2026-04-25 16:34 | 31.29675 | 74.20421 | 5639 ft | 284 kts | 72° |
| 2026-04-25 16:34 | 31.30061 | 74.21882 | 5433 ft | 284 kts | 72° |
| 2026-04-25 16:35 | 31.30446 | 74.23339 | 5278 ft | 269 kts | 72° |
| 2026-04-25 16:35 | 31.31153 | 74.26014 | 4999 ft | 258 kts | 72° |
| 2026-04-25 16:35 | 31.31857 | 74.28674 | 4636 ft | 258 kts | 72° |
| 2026-04-25 16:35 | 31.32215 | 74.30027 | 4441 ft | 258 kts | 72° |
| 2026-04-25 16:36 | 31.32736 | 74.31996 | 4315 ft | 250 kts | 72° |
| 2026-04-25 16:36 | 31.33073 | 74.33272 | 4228 ft | 244 kts | 72° |
| 2026-04-25 16:36 | 31.33715 | 74.35703 | 4127 ft | 231 kts | 72° |
| 2026-04-25 16:36 | 31.34204 | 74.37546 | 3996 ft | 239 kts | 70° |
| 2026-04-25 16:37 | 31.35043 | 74.39188 | 3693 ft | 235 kts | 39° |
| 2026-04-25 16:37 | 31.36462 | 74.39999 | 3423 ft | 224 kts | 7° |
| 2026-04-25 16:37 | 31.37990 | 74.40200 | 3167 ft | 220 kts | 0° |
| 2026-04-25 16:37 | 31.39495 | 74.40251 | 3067 ft | 213 kts | 356° |
| 2026-04-25 16:38 | 31.40967 | 74.40269 | 3019 ft | 208 kts | 356° |
| 2026-04-25 16:38 | 31.42373 | 74.40293 | 3041 ft | 198 kts | 357° |
| 2026-04-25 16:38 | 31.43741 | 74.40314 | 2955 ft | 192 kts | 356° |
| 2026-04-25 16:38 | 31.45076 | 74.40331 | 2477 ft | 192 kts | 358° |
| 2026-04-25 16:39 | 31.46388 | 74.40375 | 2011 ft | 191 kts | 357° |
| 2026-04-25 16:39 | 31.47695 | 74.40421 | 1669 ft | 175 kts | 357° |
| 2026-04-25 16:39 | 31.48825 | 74.40432 | 1915 ft | 154 kts | 350° |
| 2026-04-25 16:39 | 31.49902 | 74.40438 | 2143 ft | 157 kts | 360° |
| 2026-04-25 16:40 | 31.50988 | 74.40581 | 2392 ft | 158 kts | 1° |
| 2026-04-25 16:40 | 31.52079 | 74.40725 | 2626 ft | 158 kts | 1° |
| 2026-04-25 16:40 | 31.53247 | 74.40870 | 2804 ft | 177 kts | 0° |
| 2026-04-25 16:40 | 31.54484 | 74.40980 | 2852 ft | 179 kts | 359° |
| 2026-04-25 16:41 | 31.55714 | 74.41080 | 2915 ft | 176 kts | 359° |
| 2026-04-25 16:41 | 31.56530 | 74.41144 | 2963 ft | 177 kts | 357° |
| 2026-04-25 16:41 | 31.58382 | 74.39342 | 3015 ft | 159 kts | 282° |
| 2026-04-25 16:42 | 31.58662 | 74.38055 | 3018 ft | 167 kts | 282° |
| 2026-04-25 16:42 | 31.58961 | 74.36733 | 3010 ft | 167 kts | 282° |
| 2026-04-25 16:42 | 31.59254 | 74.35430 | 2986 ft | 163 kts | 282° |
| 2026-04-25 16:42 | 31.59397 | 74.34154 | 2984 ft | 160 kts | 256° |
| 2026-04-25 16:43 | 31.58771 | 74.33051 | 3034 ft | 177 kts | 215° |
| 2026-04-25 16:43 | 31.57568 | 74.32640 | 3015 ft | 184 kts | 186° |
| 2026-04-25 16:43 | 31.56264 | 74.32623 | 3012 ft | 189 kts | 182° |
| 2026-04-25 16:43 | 31.54950 | 74.32632 | 2996 ft | 189 kts | 182° |
| 2026-04-25 16:44 | 31.53639 | 74.32636 | 2987 ft | 189 kts | 182° |
| 2026-04-25 16:44 | 31.52320 | 74.32642 | 2996 ft | 190 kts | 182° |
| 2026-04-25 16:44 | 31.51000 | 74.32646 | 2994 ft | 190 kts | 182° |
| 2026-04-25 16:44 | 31.49674 | 74.32650 | 2990 ft | 191 kts | 182° |
| 2026-04-25 16:45 | 31.48351 | 74.32660 | 3004 ft | 190 kts | 182° |
| 2026-04-25 16:45 | 31.47024 | 74.32683 | 3007 ft | 190 kts | 182° |
| 2026-04-25 16:45 | 31.45708 | 74.32710 | 3006 ft | 188 kts | 182° |
| 2026-04-25 16:45 | 31.44399 | 74.32736 | 2995 ft | 188 kts | 182° |
| 2026-04-25 16:46 | 31.43086 | 74.32759 | 3001 ft | 188 kts | 182° |
| 2026-04-25 16:46 | 31.41775 | 74.32785 | 3003 ft | 188 kts | 182° |
| 2026-04-25 16:46 | 31.40463 | 74.32812 | 2994 ft | 188 kts | 182° |
| 2026-04-25 16:46 | 31.39598 | 74.32828 | 2995 ft | 188 kts | 182° |
| 2026-04-25 16:47 | 31.37858 | 74.32848 | 3009 ft | 189 kts | 182° |
| 2026-04-25 16:47 | 31.36523 | 74.32859 | 2998 ft | 190 kts | 182° |
| 2026-04-25 16:47 | 31.35211 | 74.32872 | 2999 ft | 190 kts | 182° |
| 2026-04-25 16:47 | 31.33890 | 74.32894 | 2996 ft | 189 kts | 178° |
| 2026-04-25 16:48 | 31.32677 | 74.33467 | 2987 ft | 194 kts | 140° |
| 2026-04-25 16:48 | 31.32016 | 74.34837 | 2957 ft | 199 kts | 102° |
| 2026-04-25 16:48 | 31.32167 | 74.36441 | 2630 ft | 200 kts | 65° |
| 2026-04-25 16:48 | 31.32787 | 74.37853 | 2659 ft | 196 kts | 62° |
| 2026-04-25 16:49 | 31.33505 | 74.39223 | 2595 ft | 197 kts | 43° |
| 2026-04-25 16:49 | 31.34698 | 74.39899 | 2593 ft | 191 kts | 4° |
| 2026-04-25 16:49 | 31.36035 | 74.40086 | 2619 ft | 195 kts | 2° |
| 2026-04-25 16:49 | 31.37365 | 74.40193 | 2587 ft | 186 kts | 358° |
| 2026-04-25 16:50 | 31.38573 | 74.40228 | 2566 ft | 166 kts | 356° |
| 2026-04-25 16:50 | 31.39670 | 74.40247 | 2579 ft | 152 kts | 355° |
| 2026-04-25 16:50 | 31.40739 | 74.40263 | 2564 ft | 157 kts | 355° |
| 2026-04-25 16:50 | 31.41840 | 74.40281 | 2342 ft | 157 kts | 356° |
| 2026-04-25 16:51 | 31.42923 | 74.40301 | 2147 ft | 154 kts | 355° |
| 2026-04-25 16:51 | 31.44000 | 74.40319 | 1970 ft | 155 kts | 355° |
| 2026-04-25 16:51 | 31.45088 | 74.40338 | 1773 ft | 157 kts | 355° |
| 2026-04-25 16:51 | 31.45815 | 74.40351 | 1651 ft | 158 kts | 356° |
| 2026-04-25 16:52 | 31.47274 | 74.40371 | 1432 ft | 155 kts | 358° |
| 2026-04-25 16:52 | 31.48310 | 74.40395 | 1254 ft | 144 kts | 358° |
| 2026-04-25 16:52 | 31.49315 | 74.40410 | 1027 ft | 144 kts | 357° |
| 2026-04-25 16:52 | 31.50297 | 74.40435 | 825 ft | 140 kts | 359° |
| 2026-04-25 16:53 | 31.52036 | 74.40455 | 724 ft | 86 kts | 1° |
| 2026-04-25 16:53 | 31.52508 | 74.40464 | 724 ft | 62 kts | 1° |
| 2026-04-25 16:53 | 31.52783 | 74.40492 | 726 ft | 17 kts | 42° |
| 2026-04-25 16:54 | 31.52802 | 74.40625 | 723 ft | 10 kts | 98° |
| 2026-04-25 16:54 | 31.52758 | 74.40668 | 726 ft | 0 kts | 169° |
| 2026-04-25 16:55 | 31.52757 | 74.40668 | 726 ft | 0 kts | 169° |
| 2026-04-25 16:55 | 31.52744 | 74.40670 | 725 ft | 4 kts | 172° |
| 2026-04-25 16:55 | 31.52703 | 74.40674 | 726 ft | 8 kts | 179° |
| 2026-04-25 16:55 | 31.52638 | 74.40674 | 724 ft | 11 kts | 181° |
| 2026-04-25 16:56 | 31.52550 | 74.40674 | 727 ft | 14 kts | 180° |
| 2026-04-25 16:56 | 31.52446 | 74.40682 | 723 ft | 15 kts | 158° |
| 2026-04-25 16:56 | 31.52403 | 74.40791 | 723 ft | 16 kts | 110° |
| 2026-04-25 16:56 | 31.52315 | 74.40845 | 725 ft | 10 kts | 177° |
| 2026-04-25 16:57 | 31.52239 | 74.40845 | 724 ft | 11 kts | 181° |
| 2026-04-25 16:57 | 31.52188 | 74.40845 | 723 ft | 11 kts | 179° |
| 2026-04-25 16:57 | 31.52118 | 74.40853 | 725 ft | 4 kts | 149° |
| 2026-04-25 16:57 | 31.52105 | 74.40887 | 725 ft | 5 kts | 94° |
| 2026-04-25 16:58 | 31.52103 | 74.40935 | 725 ft | 4 kts | 90° |
| 2026-04-25 16:58 | 31.52103 | 74.40950 | 725 ft | 1 kts | 90° |
| 2026-04-25 16:58 | 31.52103 | 74.40952 | 725 ft | 0 kts | 90° |